Time;durP1;ratioP1;P1;durP2;ratioP2;P2;SDS_P1;SDS_P2;PMS_P1;PMS_P2;Temp;Humidity;BMP_temperature;BMP_pressure;BME280_temperature;BME280_humidity;BME280_pressure;Samples;Min_cycle;Max_cycle;Signal;HPM_P1;HPM_P2
2024/04/16 00:00:24;;;;;;;;;;;;;;;16.17;46.89;99885.44;5473053;26;2854;-54
2024/04/16 00:02:50;;;;;;;;;;;;;;;15.94;46.39;99882.91;5516304;26;1491;-50
2024/04/16 00:05:15;;;;;;;;;;;;;;;15.97;46.41;99881.78;5492375;26;1228;-50
2024/04/16 00:07:41;;;;;;;;;;;;;;;16.49;46.61;99876.53;5502722;26;1213;-49
2024/04/16 00:10:07;;;;;;;;;;;;;;;16.08;46.58;99878.28;5519295;26;1310;-45
2024/04/16 00:12:32;;;;;;;;;;;;;;;15.99;45.93;99879.88;5503388;26;1825;-45
2024/04/16 00:15:16;;;;;;;;;;;;;;;15.85;45.66;99876.56;5515578;26;1348;-46
2024/04/16 00:17:43;;;;;;;;;;;;;;;15.71;45.38;99876.88;5466723;26;1681;-45
2024/04/16 00:20:09;;;;;;;;;;;;;;;15.66;45.28;99875.44;5500439;26;1189;-49
2024/04/16 00:22:34;;;;;;;;;;;;;;;16.80;45.96;99875.66;5519880;26;1229;-49
2024/04/16 00:25:00;;;;;;;;;;;;;;;16.51;46.91;99873.75;5515172;26;1232;-50
2024/04/16 00:27:26;;;;;;;;;;;;;;;16.09;46.87;99866.69;5474605;26;1206;-50
2024/04/16 00:29:52;;;;;;;;;;;;;;;16.00;46.26;99873.59;5516547;26;2662;-47
2024/04/16 00:32:17;;;;;;;;;;;;;;;15.82;45.84;99874.16;5499468;26;1871;-49
2024/04/16 00:34:43;;;;;;;;;;;;;;;16.93;46.14;99877.22;5515100;26;1240;-48
2024/04/16 00:37:08;;;;;;;;;;;;;;;16.21;46.55;99873.59;5531553;26;1219;-48
2024/04/16 00:39:34;;;;;;;;;;;;;;;16.03;46.19;99855.63;5531548;26;1216;-48
2024/04/16 00:41:59;;;;;;;;;;;;;;;15.84;45.98;99860.78;5499773;26;1207;-46
2024/04/16 00:44:25;;;;;;;;;;;;;;;15.79;45.45;99848.75;5521075;26;1049;-52
2024/04/16 00:46:51;;;;;;;;;;;;;;;16.15;45.97;99855.53;5498651;26;1173;-49
2024/04/16 00:49:16;;;;;;;;;;;;;;;16.57;46.42;99849.31;5512623;26;1368;-48
2024/04/16 00:51:42;;;;;;;;;;;;;;;16.10;46.49;99836.53;5500893;26;1827;-49
2024/04/16 00:54:07;;;;;;;;;;;;;;;17.44;46.65;99834.66;5530679;26;1228;-48
2024/04/16 00:56:33;;;;;;;;;;;;;;;16.44;47.17;99830.97;5470717;26;1161;-50
2024/04/16 00:58:59;;;;;;;;;;;;;;;16.19;47.03;99830.44;5462754;26;2623;-47
2024/04/16 01:01:24;;;;;;;;;;;;;;;16.11;46.26;99832.91;5486872;26;1131;-49
2024/04/16 01:03:50;;;;;;;;;;;;;;;16.01;45.70;99831.06;5511946;26;1181;-50
2024/04/16 01:06:16;;;;;;;;;;;;;;;15.85;45.25;99828.81;5501836;26;1101;-49
2024/04/16 01:08:41;;;;;;;;;;;;;;;15.82;44.95;99821.13;5508542;26;1315;-45
2024/04/16 01:11:07;;;;;;;;;;;;;;;15.75;45.08;99823.44;5499190;26;1877;-48
2024/04/16 01:13:32;;;;;;;;;;;;;;;15.79;45.41;99816.09;5513521;26;1153;-47
2024/04/16 01:15:58;;;;;;;;;;;;;;;16.87;46.27;99815.69;5494250;26;1115;-49
2024/04/16 01:18:24;;;;;;;;;;;;;;;16.11;46.67;99815.19;5493412;26;1471;-46
2024/04/16 01:20:49;;;;;;;;;;;;;;;15.91;46.45;99812.38;5494412;26;1275;-46
2024/04/16 01:23:15;;;;;;;;;;;;;;;15.73;46.03;99806.81;5511381;26;1163;-50
2024/04/16 01:25:41;;;;;;;;;;;;;;;15.83;45.41;99804.22;5529563;26;1141;-47
2024/04/16 01:28:07;;;;;;;;;;;;;;;16.87;46.30;99807.72;5530850;26;1163;-49
2024/04/16 01:30:33;;;;;;;;;;;;;;;16.37;46.55;99800.59;5505722;26;2787;-52
2024/04/16 01:32:58;;;;;;;;;;;;;;;16.02;46.38;99802.69;5523625;26;1856;-47
2024/04/16 01:35:24;;;;;;;;;;;;;;;15.90;45.90;99809.84;5505866;26;1256;-48
2024/04/16 01:37:49;;;;;;;;;;;;;;;15.82;45.60;99802.56;5514216;26;1205;-51
2024/04/16 01:40:15;;;;;;;;;;;;;;;16.96;45.92;99799.91;5522467;26;1129;-48
2024/04/16 01:42:40;;;;;;;;;;;;;;;16.14;46.79;99793.69;5514098;26;1268;-47
2024/04/16 01:45:06;;;;;;;;;;;;;;;16.01;46.46;99795.72;5498877;26;1139;-48
2024/04/16 01:47:32;;;;;;;;;;;;;;;15.85;46.17;99790.88;5514718;26;1253;-48
2024/04/16 01:49:57;;;;;;;;;;;;;;;15.87;45.27;99778.28;5497688;26;1162;-48
2024/04/16 01:52:23;;;;;;;;;;;;;;;17.36;46.32;99784.84;5514501;26;1876;-49
2024/04/16 01:54:48;;;;;;;;;;;;;;;16.45;46.95;99787.50;5521547;26;1154;-48
2024/04/16 01:57:14;;;;;;;;;;;;;;;16.07;46.89;99783.72;5529739;26;1040;-48
2024/04/16 01:59:39;;;;;;;;;;;;;;;15.97;46.43;99781.00;5513736;26;2698;-47
2024/04/16 02:02:06;;;;;;;;;;;;;;;15.94;45.76;99775.94;5514792;26;1122;-48
2024/04/16 02:04:32;;;;;;;;;;;;;;;15.91;45.37;99775.22;5518087;26;1089;-45
2024/04/16 02:06:58;;;;;;;;;;;;;;;17.34;45.65;99779.66;5494136;26;1179;-49
2024/04/16 02:09:23;;;;;;;;;;;;;;;16.27;47.08;99774.03;5514054;26;1224;-50
2024/04/16 02:11:49;;;;;;;;;;;;;;;16.11;46.57;99782.50;5530311;26;1821;-48
2024/04/16 02:14:14;;;;;;;;;;;;;;;16.05;45.96;99772.41;5526943;26;1150;-49
2024/04/16 02:16:40;;;;;;;;;;;;;;;16.36;46.70;99781.22;5493464;26;1268;-49
2024/04/16 02:19:05;;;;;;;;;;;;;;;16.56;47.08;99775.94;5496184;26;1415;-46
2024/04/16 02:21:32;;;;;;;;;;;;;;;16.04;47.07;99774.22;5512658;26;1098;-50
2024/04/16 02:23:57;;;;;;;;;;;;;;;15.98;46.42;99780.03;5527246;26;1277;-48
2024/04/16 02:26:23;;;;;;;;;;;;;;;15.96;45.75;99777.53;5507774;26;1224;-49
2024/04/16 02:28:48;;;;;;;;;;;;;;;15.86;45.45;99782.78;5501514;26;1172;-49
2024/04/16 02:31:14;;;;;;;;;;;;;;;15.83;45.23;99792.81;5528965;26;2901;-47
2024/04/16 02:33:40;;;;;;;;;;;;;;;15.79;44.89;99793.06;5488296;26;1149;-51
2024/04/16 02:36:05;;;;;;;;;;;;;;;16.98;45.61;99800.63;5508089;26;1230;-48
2024/04/16 02:38:32;;;;;;;;;;;;;;;16.10;46.83;99792.25;5505461;26;1314;-52
2024/04/16 02:40:57;;;;;;;;;;;;;;;15.96;46.13;99796.09;5530159;26;1283;-49
2024/04/16 02:43:24;;;;;;;;;;;;;;;15.87;45.73;99800.34;5529026;26;1121;-51
2024/04/16 02:45:49;;;;;;;;;;;;;;;15.88;45.35;99807.34;5510598;26;1037;-49
2024/04/16 02:48:15;;;;;;;;;;;;;;;15.67;45.37;99796.75;5529663;26;1290;-50
2024/04/16 02:50:40;;;;;;;;;;;;;;;15.69;45.16;99800.13;5514916;26;1332;-50
2024/04/16 02:53:06;;;;;;;;;;;;;;;16.63;45.89;99810.75;5493433;26;1833;-48
2024/04/16 02:55:33;;;;;;;;;;;;;;;16.19;46.52;99811.00;5508355;26;1308;-50
2024/04/16 02:57:59;;;;;;;;;;;;;;;15.99;45.94;99813.56;5464669;26;1064;-50
2024/04/16 03:00:24;;;;;;;;;;;;;;;15.88;45.88;99819.78;5521928;26;2865;-50
2024/04/16 03:02:50;;;;;;;;;;;;;;;15.76;45.58;99821.66;5526620;26;1181;-48
2024/04/16 03:05:16;;;;;;;;;;;;;;;15.69;45.40;99826.63;5492770;26;1271;-46
2024/04/16 03:07:43;;;;;;;;;;;;;;;15.66;45.01;99825.06;5517253;26;1221;-49
2024/04/16 03:10:13;;;;;;;;;;;;;;;15.58;45.06;99827.50;5503811;26;1272;-49
2024/04/16 03:12:39;;;;;;;;;;;;;;;16.79;45.80;99828.81;5516101;26;1870;-47
2024/04/16 03:15:05;;;;;;;;;;;;;;;16.42;46.61;99824.94;5509621;26;1269;-48
2024/04/16 03:17:30;;;;;;;;;;;;;;;15.94;46.86;99823.69;5524120;26;1126;-46
2024/04/16 03:19:56;;;;;;;;;;;;;;;15.89;46.28;99829.41;5493884;26;1389;-49
2024/04/16 03:22:21;;;;;;;;;;;;;;;15.77;45.80;99823.31;5500787;26;1370;-52
2024/04/16 03:24:50;;;;;;;;;;;;;;;15.77;45.47;99826.81;5508525;26;1267;-53
2024/04/16 03:27:15;;;;;;;;;;;;;;;17.02;45.59;99829.44;5504180;26;1204;-47
2024/04/16 03:29:41;;;;;;;;;;;;;;;16.20;46.70;99829.44;5516695;26;2654;-48
2024/04/16 03:32:07;;;;;;;;;;;;;;;15.94;46.28;99827.19;5494182;26;1821;-51
2024/04/16 03:34:32;;;;;;;;;;;;;;;16.72;46.49;99831.19;5512670;26;1275;-47
2024/04/16 03:37:00;;;;;;;;;;;;;;;16.35;47.18;99842.38;5492336;26;1154;-50
2024/04/16 03:39:26;;;;;;;;;;;;;;;16.03;46.77;99834.38;5491945;26;1123;-50
2024/04/16 03:41:51;;;;;;;;;;;;;;;15.95;46.24;99836.00;5516437;26;1352;-49
2024/04/16 03:44:17;;;;;;;;;;;;;;;15.77;46.04;99837.44;5504878;26;1192;-51
2024/04/16 03:46:42;;;;;;;;;;;;;;;15.85;45.40;99838.59;5496571;26;1172;-48
2024/04/16 03:49:08;;;;;;;;;;;;;;;15.71;45.29;99834.44;5511795;26;1257;-47
2024/04/16 03:51:34;;;;;;;;;;;;;;;15.71;44.93;99837.09;5516089;26;1832;-48
2024/04/16 03:53:59;;;;;;;;;;;;;;;15.71;44.66;99831.81;5509149;26;1240;-50
2024/04/16 03:56:25;;;;;;;;;;;;;;;15.76;44.95;99827.81;5494904;26;1144;-54
2024/04/16 04:01:34;;;;;;;;;;;;;;;15.61;44.57;99832.59;5524964;26;1203;-50
2024/04/16 04:04:00;;;;;;;;;;;;;;;16.75;45.71;99833.56;5508848;26;1234;-49
2024/04/16 04:06:26;;;;;;;;;;;;;;;16.14;46.53;99830.84;5516930;26;1302;-46
2024/04/16 04:08:51;;;;;;;;;;;;;;;16.64;46.23;99833.66;5496194;26;1221;-44
2024/04/16 04:11:17;;;;;;;;;;;;;;;16.64;46.17;99836.34;5516319;26;1826;-47
2024/04/16 04:13:42;;;;;;;;;;;;;;;16.57;46.42;99838.69;5492227;26;1125;-48
2024/04/16 04:16:08;;;;;;;;;;;;;;;16.49;46.71;99842.03;5516415;26;1221;-45
2024/04/16 04:18:33;;;;;;;;;;;;;;;16.38;46.94;99845.59;5511884;25;1374;-47
2024/04/16 04:20:59;;;;;;;;;;;;;;;16.31;47.00;99840.97;5498739;26;1343;-47
2024/04/16 04:23:24;;;;;;;;;;;;;;;16.26;47.23;99847.53;5511629;26;1316;-47
2024/04/16 04:25:50;;;;;;;;;;;;;;;16.20;47.55;99839.25;5516391;26;1087;-47
2024/04/16 04:28:16;;;;;;;;;;;;;;;16.16;47.67;99852.75;5491077;26;1280;-50
2024/04/16 04:30:42;;;;;;;;;;;;;;;16.13;47.86;99849.53;5493025;26;2210;-47
2024/04/16 04:33:07;;;;;;;;;;;;;;;16.02;47.99;99856.59;5491424;26;1825;-50
2024/04/16 04:35:33;;;;;;;;;;;;;;;16.00;48.01;99858.53;5495539;26;1182;-51
2024/04/16 04:37:59;;;;;;;;;;;;;;;15.98;48.32;99862.28;5476429;26;1221;-50
2024/04/16 04:40:24;;;;;;;;;;;;;;;15.91;48.47;99869.91;5490758;26;1182;-52
2024/04/16 04:42:50;;;;;;;;;;;;;;;16.97;46.14;99879.47;5509843;26;1125;-52
2024/04/16 04:45:16;;;;;;;;;;;;;;;17.07;45.91;99881.31;5496315;26;1342;-54
2024/04/16 04:47:42;;;;;;;;;;;;;;;16.57;47.47;99886.47;5499324;26;1451;-52
2024/04/16 04:50:07;;;;;;;;;;;;;;;16.34;47.89;99880.50;5495381;26;1317;-47
2024/04/16 04:52:33;;;;;;;;;;;;;;;16.33;47.97;99886.78;5494585;26;1825;-49
2024/04/16 04:55:01;;;;;;;;;;;;;;;16.15;48.39;99887.38;5508367;26;1292;-48
2024/04/16 04:57:27;;;;;;;;;;;;;;;15.99;48.72;99887.84;5498423;26;1385;-48
2024/04/16 04:59:53;;;;;;;;;;;;;;;15.93;48.76;99891.00;5517148;26;2843;-49
2024/04/16 05:02:18;;;;;;;;;;;;;;;15.94;48.85;99890.84;5502636;26;1276;-44
2024/04/16 05:04:44;;;;;;;;;;;;;;;16.31;48.50;99891.38;5494550;26;1247;-48
2024/04/16 05:07:09;;;;;;;;;;;;;;;17.64;45.44;99886.00;5493987;26;1245;-48
2024/04/16 05:09:35;;;;;;;;;;;;;;;16.88;46.78;99882.97;5494169;26;1310;-51
2024/04/16 05:12:00;;;;;;;;;;;;;;;16.52;48.08;99884.22;5494354;26;1868;-48
2024/04/16 05:14:26;;;;;;;;;;;;;;;16.39;48.52;99888.91;5494350;26;1344;-48
2024/04/16 05:16:52;;;;;;;;;;;;;;;16.26;48.67;99887.31;5493967;26;1089;-47
2024/04/16 05:19:17;;;;;;;;;;;;;;;16.11;49.19;99888.63;5500250;26;1360;-51
2024/04/16 05:21:43;;;;;;;;;;;;;;;16.09;49.12;99886.09;5512581;26;1200;-50
2024/04/16 05:24:11;;;;;;;;;;;;;;;16.06;49.26;99885.50;5494208;26;1316;-47
2024/04/16 05:26:36;;;;;;;;;;;;;;;15.96;49.51;99890.72;5515231;26;1318;-45
2024/04/16 05:29:02;;;;;;;;;;;;;;;15.87;49.76;99884.38;5527026;26;2249;-48
2024/04/16 05:31:27;;;;;;;;;;;;;;;16.31;49.20;99881.63;5493867;26;1833;-49
2024/04/16 05:33:53;;;;;;;;;;;;;;;17.63;46.18;99885.16;5518145;26;1271;-48
2024/04/16 05:36:18;;;;;;;;;;;;;;;16.87;47.50;99882.09;5508772;26;1259;-52
2024/04/16 05:38:44;;;;;;;;;;;;;;;16.57;48.53;99888.28;5514653;26;1280;-53
2024/04/16 05:41:10;;;;;;;;;;;;;;;16.38;48.93;99885.41;5512555;26;1302;-48
2024/04/16 05:43:35;;;;;;;;;;;;;;;16.22;49.40;99887.69;5507603;26;1329;-47
2024/04/16 05:46:01;;;;;;;;;;;;;;;16.13;49.65;99886.69;5509189;26;1352;-48
2024/04/16 05:48:26;;;;;;;;;;;;;;;16.11;49.60;99889.47;5493205;26;1306;-46
2024/04/16 05:50:52;;;;;;;;;;;;;;;16.05;49.73;99882.00;5505541;26;1336;-48
2024/04/16 05:53:17;;;;;;;;;;;;;;;15.97;49.97;99887.94;5506849;26;1825;-52
2024/04/16 05:55:43;;;;;;;;;;;;;;;17.23;47.65;99891.44;5513436;26;1340;-55
2024/04/16 05:58:10;;;;;;;;;;;;;;;17.22;46.83;99885.28;5504229;26;1259;-54
2024/04/16 06:00:38;;;;;;;;;;;;;;;16.71;48.66;99897.72;5513524;26;2186;-53
2024/04/16 06:03:04;;;;;;;;;;;;;;;16.39;49.23;99894.22;5505268;26;1200;-53
2024/04/16 06:05:29;;;;;;;;;;;;;;;16.29;49.50;99891.53;5510668;26;1117;-51
2024/04/16 06:07:55;;;;;;;;;;;;;;;16.27;49.70;99896.09;5501649;26;1169;-44
2024/04/16 06:10:21;;;;;;;;;;;;;;;16.14;50.07;99898.97;5494498;26;1397;-49
2024/04/16 06:12:46;;;;;;;;;;;;;;;16.03;50.15;99892.75;5520650;26;1828;-46
2024/04/16 06:15:12;;;;;;;;;;;;;;;15.98;50.33;99894.94;5512758;26;1366;-47
2024/04/16 06:17:38;;;;;;;;;;;;;;;16.14;50.46;99893.66;5509122;26;1445;-46
2024/04/16 06:20:04;;;;;;;;;;;;;;;17.60;47.01;99895.25;5502787;26;1603;-49
2024/04/16 06:22:30;;;;;;;;;;;;;;;17.05;48.13;99897.38;5507519;26;1788;-48
2024/04/16 06:24:55;;;;;;;;;;;;;;;16.62;49.13;99894.88;5510869;26;1288;-49
2024/04/16 06:27:21;;;;;;;;;;;;;;;16.47;49.72;99901.50;5503549;26;1523;-51
2024/04/16 06:29:46;;;;;;;;;;;;;;;16.29;49.77;99894.16;5508375;26;2115;-47
2024/04/16 06:32:12;;;;;;;;;;;;;;;16.15;50.32;99887.38;5499104;26;1870;-51
2024/04/16 06:34:37;;;;;;;;;;;;;;;16.16;50.35;99886.41;5509711;26;1546;-50
2024/04/16 06:37:03;;;;;;;;;;;;;;;16.07;50.42;99885.38;5509166;26;1431;-49
2024/04/16 06:39:29;;;;;;;;;;;;;;;16.06;50.51;99886.38;5502309;26;1616;-49
2024/04/16 06:41:57;;;;;;;;;;;;;;;15.97;50.68;99887.94;5517324;26;1567;-50
2024/04/16 06:44:23;;;;;;;;;;;;;;;17.08;48.84;99883.00;5521227;26;1182;-52
2024/04/16 06:46:48;;;;;;;;;;;;;;;17.45;47.62;99886.88;5492749;26;1028;-50
2024/04/16 06:49:14;;;;;;;;;;;;;;;16.84;48.86;99878.88;5497493;26;1623;-47
2024/04/16 06:51:39;;;;;;;;;;;;;;;16.56;49.52;99871.53;5508993;26;1858;-50
2024/04/16 06:54:05;;;;;;;;;;;;;;;16.40;50.43;99864.03;5493418;26;1148;-51
2024/04/16 06:56:32;;;;;;;;;;;;;;;16.30;50.24;99866.66;5493213;26;1630;-46
2024/04/16 06:58:57;;;;;;;;;;;;;;;16.25;50.62;99861.75;5509943;26;2417;-52
2024/04/16 07:01:25;;;;;;;;;;;;;;;16.15;50.56;99864.34;5505679;26;1153;-52
2024/04/16 07:03:51;;;;;;;;;;;;;;;16.08;50.76;99851.75;5511578;26;1228;-53
2024/04/16 07:06:16;;;;;;;;;;;;;;;15.98;51.09;99841.03;5524028;26;1308;-51
2024/04/16 07:08:42;;;;;;;;;;;;;;;15.98;50.98;99847.19;5514725;26;1193;-47
2024/04/16 07:11:08;;;;;;;;;;;;;;;17.20;49.02;99854.53;5521033;26;1855;-47
2024/04/16 07:13:33;;;;;;;;;;;;;;;17.33;47.92;99848.94;5506471;26;1161;-48
2024/04/16 07:15:59;;;;;;;;;;;;;;;16.80;49.52;99851.75;5516798;26;1350;-50
2024/04/16 07:18:24;;;;;;;;;;;;;;;16.40;50.24;99826.88;5493064;26;1428;-47
2024/04/16 07:20:50;;;;;;;;;;;;;;;16.40;50.54;99850.75;5498315;26;1794;-48
2024/04/16 07:23:16;;;;;;;;;;;;;;;16.32;50.65;99851.44;5510477;26;1520;-47
2024/04/16 07:25:44;;;;;;;;;;;;;;;16.24;50.81;99845.94;5522050;26;1105;-48
2024/04/16 07:28:10;;;;;;;;;;;;;;;16.17;50.92;99850.94;5492929;26;1121;-49
2024/04/16 07:30:36;;;;;;;;;;;;;;;16.11;51.25;99849.69;5497875;26;2890;-47
2024/04/16 07:33:03;;;;;;;;;;;;;;;16.05;51.14;99834.25;5503087;26;1868;-50
2024/04/16 07:35:29;;;;;;;;;;;;;;;16.73;50.19;99834.69;5514818;26;1130;-49
2024/04/16 07:37:54;;;;;;;;;;;;;;;17.44;48.56;99837.31;5492762;26;1174;-47
2024/04/16 07:40:20;;;;;;;;;;;;;;;16.77;49.96;99836.94;5516446;26;1118;-46
2024/04/16 07:42:45;;;;;;;;;;;;;;;16.49;50.67;99847.31;5493250;26;1167;-49
2024/04/16 07:45:11;;;;;;;;;;;;;;;16.38;50.84;99836.81;5494364;26;1356;-46
2024/04/16 07:47:37;;;;;;;;;;;;;;;16.30;51.02;99841.94;5496980;26;1316;-49
2024/04/16 07:50:02;;;;;;;;;;;;;;;16.26;51.15;99838.72;5500287;26;1411;-47
2024/04/16 07:52:28;;;;;;;;;;;;;;;16.14;51.39;99833.50;5497124;26;1864;-50
2024/04/16 07:54:53;;;;;;;;;;;;;;;16.16;51.41;99833.34;5520790;26;1219;-48
2024/04/16 07:57:19;;;;;;;;;;;;;;;16.09;51.58;99834.84;5504455;26;1361;-45
2024/04/16 07:59:45;;;;;;;;;;;;;;;16.00;51.47;99832.00;5501799;26;2814;-46
2024/04/16 08:02:10;;;;;;;;;;;;;;;15.99;51.64;99835.63;5492923;26;1112;-47
2024/04/16 08:04:36;;;;;;;;;;;;;;;16.45;51.25;99826.50;5528455;26;1265;-47
2024/04/16 08:07:01;;;;;;;;;;;;;;;17.77;48.15;99826.38;5527759;26;1225;-48
2024/04/16 08:09:27;;;;;;;;;;;;;;;17.09;49.53;99821.78;5491908;26;1377;-49
2024/04/16 08:11:52;;;;;;;;;;;;;;;16.75;50.62;99819.44;5517769;26;1821;-48
2024/04/16 08:14:20;;;;;;;;;;;;;;;16.52;51.17;99823.16;5504499;26;1245;-44
2024/04/16 08:16:46;;;;;;;;;;;;;;;16.46;51.41;99828.16;5521035;26;1806;-46
2024/04/16 08:19:11;;;;;;;;;;;;;;;16.30;51.23;99826.03;5501322;25;1289;-52
2024/04/16 08:21:37;;;;;;;;;;;;;;;16.21;51.81;99831.16;5529241;26;1140;-50
2024/04/16 08:24:03;;;;;;;;;;;;;;;16.21;51.67;99823.19;5503920;26;1286;-44
2024/04/16 08:26:28;;;;;;;;;;;;;;;16.19;51.65;99830.44;5511621;26;1211;-48
2024/04/16 08:28:54;;;;;;;;;;;;;;;16.12;51.52;99840.72;5519072;26;2741;-51
2024/04/16 08:31:20;;;;;;;;;;;;;;;16.06;51.76;99841.25;5511451;26;1820;-52
2024/04/16 08:33:45;;;;;;;;;;;;;;;16.04;51.75;99827.28;5506777;26;1177;-49
2024/04/16 08:36:11;;;;;;;;;;;;;;;15.98;51.98;99830.44;5519043;26;1004;-47
2024/04/16 08:38:36;;;;;;;;;;;;;;;16.38;51.62;99824.34;5506776;26;1149;-52
2024/04/16 08:41:03;;;;;;;;;;;;;;;17.53;49.37;99831.16;5531374;26;1263;-52
2024/04/16 08:43:31;;;;;;;;;;;;;;;16.83;51.08;99829.41;5502355;26;1236;-46
2024/04/16 08:45:57;;;;;;;;;;;;;;;16.62;51.22;99838.28;5464510;26;1381;-48
2024/04/16 08:48:22;;;;;;;;;;;;;;;16.44;51.62;99838.06;5476847;26;1341;-50
2024/04/16 08:50:48;;;;;;;;;;;;;;;16.31;51.99;99833.00;5507444;26;1296;-51
2024/04/16 08:53:13;;;;;;;;;;;;;;;16.23;52.07;99837.13;5506557;26;1830;-50
2024/04/16 08:55:39;;;;;;;;;;;;;;;16.19;51.99;99833.09;5473353;26;1258;-50
2024/04/16 08:58:05;;;;;;;;;;;;;;;16.18;52.07;99833.22;5477567;26;1412;-48
2024/04/16 09:00:31;;;;;;;;;;;;;;;16.13;52.18;99823.00;5503811;26;2130;-49
2024/04/16 09:02:56;;;;;;;;;;;;;;;16.13;52.07;99842.41;5480716;26;1405;-47
2024/04/16 09:05:22;;;;;;;;;;;;;;;16.08;52.11;99841.13;5481654;26;1258;-49
2024/04/16 09:07:47;;;;;;;;;;;;;;;16.02;52.20;99837.19;5479236;26;1458;-48
2024/04/16 09:10:20;;;;;;;;;;;;;;;15.99;52.32;99829.47;5507690;26;1281;-47
2024/04/16 09:12:47;;;;;;;;;;;;;;;16.03;52.12;99838.88;5507121;26;1836;-49
2024/04/16 09:15:13;;;;;;;;;;;;;;;16.85;50.98;99820.31;5504054;26;1425;-49
2024/04/16 09:17:51;;;;;;;;;;;;;;;17.53;49.65;99820.53;5511601;26;1524;-45
2024/04/16 09:20:17;;;;;;;;;;;;;;;16.83;51.41;99813.47;5506931;25;1421;-50
2024/04/16 09:22:42;;;;;;;;;;;;;;;16.61;51.84;99813.56;5494457;26;1276;-48
2024/04/16 09:25:08;;;;;;;;;;;;;;;16.46;51.88;99802.47;5495341;26;1301;-48
2024/04/16 09:27:34;;;;;;;;;;;;;;;16.43;52.11;99809.84;5506428;26;1583;-51
2024/04/16 09:30:12;;;;;;;;;;;;;;;16.34;52.20;99803.53;5502725;26;2710;-47
2024/04/16 09:32:37;;;;;;;;;;;;;;;16.30;52.00;99802.94;5502118;26;1867;-47
2024/04/16 09:35:03;;;;;;;;;;;;;;;16.24;52.19;99806.16;5495720;26;1363;-46
2024/04/16 09:37:29;;;;;;;;;;;;;;;16.19;52.31;99797.75;5500438;26;1377;-47
2024/04/16 09:39:54;;;;;;;;;;;;;;;16.11;52.49;99788.66;5494092;26;1151;-47
2024/04/16 09:42:23;;;;;;;;;;;;;;;16.13;52.27;99788.53;5462165;26;1227;-50
2024/04/16 09:44:49;;;;;;;;;;;;;;;16.10;52.30;99786.13;5466217;26;1245;-49
2024/04/16 09:47:14;;;;;;;;;;;;;;;16.06;52.31;99787.34;5472858;26;1413;-50
2024/04/16 09:49:40;;;;;;;;;;;;;;;16.05;52.31;99780.38;5498198;26;1138;-47
2024/04/16 09:52:06;;;;;;;;;;;;;;;16.04;52.22;99779.53;5473797;26;1829;-51
2024/04/16 09:54:31;;;;;;;;;;;;;;;17.18;50.40;99772.28;5497681;26;1147;-50
2024/04/16 09:56:57;;;;;;;;;;;;;;;17.33;50.46;99774.50;5491318;26;1306;-50
2024/04/16 09:59:23;;;;;;;;;;;;;;;16.81;51.58;99770.25;5523195;26;2899;-50
2024/04/16 10:01:48;;;;;;;;;;;;;;;16.61;52.02;99770.22;5518282;26;1221;-47
2024/04/16 10:04:14;;;;;;;;;;;;;;;16.52;52.07;99771.88;5514512;26;1467;-47
2024/04/16 10:06:40;;;;;;;;;;;;;;;16.43;52.22;99778.00;5496958;26;1067;-49
2024/04/16 10:09:06;;;;;;;;;;;;;;;16.30;52.48;99771.09;5518450;26;1118;-49
2024/04/16 10:11:31;;;;;;;;;;;;;;;16.33;52.26;99772.66;5465717;26;1826;-50
2024/04/16 10:17:40;;;;;;;;;;;;;;;16.21;52.54;99775.44;5530420;26;1144;-52
2024/04/16 10:20:31;;;;;;;;;;;;;;;16.20;52.37;99771.06;5511059;25;1458;-49
2024/04/16 10:22:58;;;;;;;;;;;;;;;16.14;52.49;99769.81;5527885;26;1300;-48
2024/04/16 10:25:54;;;;;;;;;;;;;;;16.15;52.57;99758.22;5498620;26;1223;-49
2024/04/16 10:31:10;;;;;;;;;;;;;;;16.10;52.71;99755.13;5867195;21;7490;-42
2024/04/16 10:34:10;;;;;;;;;;;;;;;16.02;52.32;99750.50;5271177;27;1219;-42
2024/04/16 10:36:35;;;;;;;;;;;;;;;16.02;52.55;99754.94;5285383;27;1198;-48
2024/04/16 10:42:26;;;;;;;;;;;;;;;17.52;49.99;99747.03;5299972;27;1175;-43
2024/04/16 10:45:28;;;;;;;;;;;;;;;16.99;51.03;99744.69;5275356;27;1098;-46
2024/04/16 10:48:25;;;;;;;;;;;;;;;16.57;52.17;99748.41;5280156;27;1599;-41
2024/04/16 10:50:50;;;;;;;;;;;;;;;16.52;52.30;99740.00;5295594;27;1325;-46
2024/04/16 10:53:41;;;;;;;;;;;;;;;16.41;52.40;99735.66;5309674;27;1831;-42
2024/04/16 10:56:38;;;;;;;;;;;;;;;16.35;52.50;99731.72;5285966;27;1290;-44
2024/04/16 11:03:28;;;;;;;;;;;;;;;16.24;52.50;99726.53;5308452;27;1584;-45
2024/04/16 11:06:28;;;;;;;;;;;;;;;16.20;52.49;99735.75;5283244;27;1552;-44
2024/04/16 11:09:28;;;;;;;;;;;;;;;16.15;52.53;99736.13;5281487;27;1229;-44
2024/04/16 11:12:12;;;;;;;;;;;;;;;15.26;52.48;99582.00;5308122;27;1821;-44
2024/04/16 11:14:43;;;;;;;;;;;;;;;16.09;52.51;99711.00;5284604;27;1138;-45
2024/04/16 11:17:40;;;;;;;;;;;;;;;16.14;52.53;99705.28;5299323;27;1197;-46
2024/04/16 11:20:27;;;;;;;;;;;;;;;16.07;52.41;99706.78;5280333;27;1041;-44
2024/04/16 11:22:53;;;;;;;;;;;;;;;16.08;52.36;99700.53;5309409;27;1328;-47
2024/04/16 11:28:58;;;;;;;;;;;;;;;17.39;50.29;99702.16;5296615;27;1218;-43
2024/04/16 11:31:59;;;;;;;;;;;;;;;17.01;51.10;99694.91;5302903;26;1829;-45
2024/04/16 11:38:43;;;;;;;;;;;;;;;16.49;52.61;99690.69;5142891;27;1187;-43
2024/04/16 11:41:46;;;;;;;;;;;;;;;16.44;52.44;99679.66;5145757;27;1264;-44
2024/04/16 11:44:11;;;;;;;;;;;;;;;16.37;52.43;99675.84;5145496;27;1140;-43
2024/04/16 11:46:58;;;;;;;;;;;;;;;16.35;52.46;99667.22;5145196;27;1223;-43
2024/04/16 11:49:25;;;;;;;;;;;;;;;16.30;52.59;99659.63;5146008;27;1129;-43
2024/04/16 11:52:09;;;;;;;;;;;;;;;16.28;52.59;99661.63;5172009;27;1867;-43
2024/04/16 11:55:09;;;;;;;;;;;;;;;16.24;52.69;99666.34;5265575;27;1202;-40
2024/04/16 11:58:09;;;;;;;;;;;;;;;16.19;52.64;99660.59;5306095;27;1188;-44
2024/04/16 12:01:16;;;;;;;;;;;;;;;16.19;52.55;99663.25;5290583;27;1239;-45
2024/04/16 12:04:16;;;;;;;;;;;;;;;16.12;52.48;99665.63;5309635;27;1637;-42
2024/04/16 12:07:09;;;;;;;;;;;;;;;16.12;52.51;99665.63;5295854;27;1165;-45
2024/04/16 12:10:14;;;;;;;;;;;;;;;16.07;52.71;99649.28;5308714;27;1121;-41
2024/04/16 12:13:10;;;;;;;;;;;;;;;16.12;52.61;99656.81;5290665;27;1830;-43
2024/04/16 12:15:42;;;;;;;;;;;;;;;16.09;52.64;99647.31;5310523;27;1176;-46
2024/04/16 12:18:20;;;;;;;;;;;;;;;16.06;52.59;99644.09;5304162;27;1387;-41
2024/04/16 12:20:46;;;;;;;;;;;;;;;16.00;52.52;99648.97;5281370;27;1508;-44
2024/04/16 12:23:39;;;;;;;;;;;;;;;15.95;52.70;99645.84;5301978;27;1251;-45
2024/04/16 12:26:36;;;;;;;;;;;;;;;15.99;52.64;99652.59;5310867;27;1118;-42
2024/04/16 12:29:03;;;;;;;;;;;;;;;15.95;52.77;99637.91;5309716;27;1268;-41
2024/04/16 12:31:47;;;;;;;;;;;;;;;15.98;52.58;99636.81;5302335;26;1862;-44
2024/04/16 12:34:16;;;;;;;;;;;;;;;17.20;51.06;99649.88;5317505;27;1286;-46
2024/04/16 12:37:17;;;;;;;;;;;;;;;17.28;50.99;99644.69;5311652;27;1286;-45
2024/04/16 12:40:10;;;;;;;;;;;;;;;16.75;52.43;99628.22;5281071;27;1677;-46
2024/04/16 12:46:17;;;;;;;;;;;;;;;16.45;52.63;99619.44;5271676;27;1447;-43
2024/04/16 12:49:20;;;;;;;;;;;;;;;16.39;52.68;99616.38;5296385;27;1514;-45
2024/04/16 12:55:11;;;;;;;;;;;;;;;16.27;52.77;99620.97;5297608;27;1410;-43
2024/04/16 12:57:36;;;;;;;;;;;;;;;16.28;52.59;99622.63;5303611;27;1525;-46
2024/04/16 13:00:17;;;;;;;;;;;;;;;16.28;52.68;99627.13;5316309;27;1608;-45
2024/04/16 13:03:15;;;;;;;;;;;;;;;16.19;52.51;99628.78;5288878;27;1125;-44
2024/04/16 13:05:41;;;;;;;;;;;;;;;16.18;52.49;99624.44;5282513;27;1229;-45
2024/04/16 13:08:08;;;;;;;;;;;;;;;16.18;52.62;99635.06;5305687;27;1221;-45
2024/04/16 13:10:36;;;;;;;;;;;;;;;16.12;52.67;99638.25;5283138;27;1122;-44
2024/04/16 13:13:02;;;;;;;;;;;;;;;16.12;52.72;99630.28;5285688;27;1829;-44
2024/04/16 13:15:27;;;;;;;;;;;;;;;16.11;52.76;99637.44;5253814;27;1237;-48
2024/04/16 13:17:53;;;;;;;;;;;;;;;16.06;52.79;99629.03;5297980;27;1276;-45
2024/04/16 13:20:19;;;;;;;;;;;;;;;16.06;52.69;99625.53;5293554;27;1227;-45
2024/04/16 13:22:46;;;;;;;;;;;;;;;16.00;52.65;99627.75;5299313;27;1221;-45
2024/04/16 13:25:11;;;;;;;;;;;;;;;16.04;52.56;99625.66;5287222;27;1125;-45
2024/04/16 13:27:37;;;;;;;;;;;;;;;15.95;52.91;99624.63;5290059;27;1209;-43
2024/04/16 13:30:03;;;;;;;;;;;;;;;15.99;52.67;99617.28;5282747;27;1157;-44
2024/04/16 13:32:28;;;;;;;;;;;;;;;16.00;52.69;99613.63;5292444;26;1873;-46
2024/04/16 13:34:55;;;;;;;;;;;;;;;17.11;51.40;99625.00;5303542;27;1537;-42
2024/04/16 13:37:21;;;;;;;;;;;;;;;17.42;51.01;99623.91;5295762;27;1179;-43